createdAt,value
2023-11-20T00:03:27.820Z,4.57
2023-11-20T00:08:29.471Z,4.53
2023-11-20T00:13:31.013Z,4.47
2023-11-20T00:18:32.564Z,4.47
2023-11-20T00:23:34.212Z,3.90
2023-11-20T00:28:35.778Z,4.18
2023-11-20T00:33:37.334Z,3.72
2023-11-20T00:38:38.863Z,4.43
2023-11-20T00:43:40.657Z,5.10
2023-11-20T00:48:42.396Z,4.57
2023-11-20T00:53:43.958Z,3.33
2023-11-20T00:58:45.519Z,3.40
2023-11-20T01:03:47.167Z,3.17
2023-11-20T01:08:48.764Z,2.70
2023-11-20T01:13:50.278Z,3.45
2023-11-20T01:18:53.142Z,3.00
2023-11-20T01:23:54.796Z,3.60
2023-11-20T01:28:57.174Z,4.78
2023-11-20T01:33:58.759Z,4.95
2023-11-20T01:39:00.350Z,4.13
2023-11-20T01:44:02.074Z,4.45
2023-11-20T01:49:05.644Z,4.25
2023-11-20T01:54:09.658Z,4.93
2023-11-20T01:59:12.573Z,4.50
2023-11-20T02:04:15.002Z,4.60
2023-11-20T02:09:20.575Z,4.60
2023-11-20T02:14:22.341Z,6.18
2023-11-20T02:19:24.207Z,5.43
2023-11-20T02:24:27.617Z,5.28
2023-11-20T02:29:32.178Z,3.97
2023-11-20T02:34:33.796Z,5.07
2023-11-20T02:39:35.770Z,3.78
2023-11-20T02:44:38.652Z,4.60
2023-11-20T02:49:40.236Z,4.97
2023-11-20T02:54:42.618Z,5.80
2023-11-20T02:59:44.310Z,4.43
2023-11-20T03:04:45.955Z,5.25
2023-11-20T03:09:47.675Z,4.55
2023-11-20T03:14:49.250Z,4.88
2023-11-20T03:19:50.861Z,4.88
2023-11-20T03:24:53.898Z,4.70
2023-11-20T03:29:55.911Z,4.90
2023-11-20T03:34:57.524Z,4.68
2023-11-20T03:39:59.107Z,4.60
2023-11-20T03:45:01.170Z,5.25
2023-11-20T03:50:04.875Z,4.57
2023-11-20T03:55:06.556Z,5.38
2023-11-20T04:00:08.600Z,4.15
2023-11-20T04:05:10.636Z,4.03
2023-11-20T04:10:12.939Z,3.88
2023-11-20T04:15:14.644Z,4.22
2023-11-20T04:20:16.168Z,3.50
2023-11-20T04:25:18.080Z,3.75
2023-11-20T04:30:21.169Z,4.38
2023-11-20T04:35:22.775Z,4.50
2023-11-20T04:40:25.481Z,4.80
2023-11-20T04:45:27.027Z,5.05
2023-11-20T04:50:28.687Z,4.00
2023-11-20T04:55:30.233Z,4.60
2023-11-20T05:00:32.701Z,4.28
2023-11-20T05:05:34.282Z,6.50
2023-11-20T05:10:36.063Z,4.10
2023-11-20T05:15:37.624Z,5.25
2023-11-20T05:20:39.404Z,4.78
2023-11-20T05:25:41.053Z,4.68
2023-11-20T05:30:42.818Z,4.20
2023-11-20T05:35:44.690Z,4.45
2023-11-20T05:40:47.587Z,4.75
2023-11-20T05:45:49.462Z,4.50
2023-11-20T05:50:51.019Z,4.47
2023-11-20T05:55:52.607Z,5.40
2023-11-20T06:00:54.217Z,7.13
2023-11-20T06:05:55.793Z,4.65
2023-11-20T06:10:57.608Z,5.35
2023-11-20T06:15:59.145Z,4.85
2023-11-20T06:21:00.666Z,5.47
2023-11-20T06:26:02.864Z,6.65
2023-11-20T06:31:04.697Z,3.83
2023-11-20T06:36:07.931Z,4.05
2023-11-20T06:41:10.670Z,4.20
2023-11-20T06:46:20.654Z,4.78
2023-11-20T06:51:22.217Z,4.75
2023-11-20T06:56:23.800Z,5.25
2023-11-20T07:01:26.060Z,4.88
2023-11-20T07:06:27.676Z,4.75
2023-11-20T07:11:29.210Z,5.28
2023-11-20T07:16:30.841Z,4.15
2023-11-20T07:21:32.380Z,3.70
2023-11-20T07:26:33.936Z,3.85
2023-11-20T07:31:37.974Z,3.58
2023-11-20T07:36:39.663Z,4.57
2023-11-20T07:41:41.239Z,4.15
2023-11-20T07:46:42.888Z,5.05
2023-11-20T07:51:44.558Z,4.15
2023-11-20T07:56:46.173Z,4.75
2023-11-20T08:01:47.735Z,4.45
2023-11-20T08:06:49.349Z,3.67
2023-11-20T08:11:50.994Z,4.07
2023-11-20T08:16:55.661Z,5.22
2023-11-20T08:21:57.300Z,5.20
2023-11-20T08:26:58.871Z,4.68
2023-11-20T08:32:00.568Z,5.07
2023-11-20T08:37:03.699Z,4.57
2023-11-20T08:42:05.830Z,5.32
2023-11-20T08:47:07.465Z,4.97
2023-11-20T08:52:10.554Z,5.78
2023-11-20T08:57:12.468Z,6.75
2023-11-20T09:02:14.105Z,5.07
2023-11-20T09:07:15.864Z,4.50
2023-11-20T09:12:17.462Z,6.30
2023-11-20T09:17:19.043Z,4.65
2023-11-20T09:22:20.651Z,4.60
2023-11-20T09:27:22.658Z,6.72
2023-11-20T09:32:24.263Z,5.05
2023-11-20T09:37:26.147Z,5.28
2023-11-20T09:42:29.542Z,5.10
2023-11-20T09:47:31.546Z,6.95
2023-11-20T09:52:34.715Z,6.10
2023-11-20T09:57:36.270Z,5.93
2023-11-20T10:02:39.187Z,4.90
2023-11-20T10:07:42.710Z,5.68
2023-11-20T10:12:48.472Z,5.82
2023-11-20T10:17:50.026Z,5.00
2023-11-20T10:22:51.749Z,5.20
2023-11-20T10:27:56.112Z,5.30
2023-11-20T10:32:58.111Z,4.15
2023-11-20T10:38:03.170Z,4.88
2023-11-20T10:43:05.479Z,5.05
2023-11-20T10:48:10.813Z,5.75
2023-11-20T10:53:17.660Z,5.55
2023-11-20T10:58:20.343Z,5.43
2023-11-20T11:03:22.123Z,4.35
2023-11-20T11:08:24.263Z,5.25
2023-11-20T11:13:31.042Z,4.90
2023-11-20T11:18:34.906Z,4.30
2023-11-20T11:23:42.135Z,4.38
2023-11-20T11:28:49.332Z,4.60
2023-11-20T11:34:22.050Z,5.07
2023-11-20T11:39:37.716Z,4.60
2023-11-20T11:45:12.980Z,4.80
2023-11-20T11:50:18.351Z,5.05
2023-11-20T11:55:22.061Z,4.40
2023-11-20T12:00:23.705Z,4.15
2023-11-20T12:05:25.880Z,4.68
2023-11-20T12:10:47.451Z,3.95
2023-11-20T12:15:52.427Z,3.83
2023-11-20T12:20:54.283Z,4.05
2023-11-20T12:25:56.129Z,4.03
2023-11-20T12:30:57.728Z,5.35
2023-11-20T12:36:01.048Z,4.47
2023-11-20T12:41:07.140Z,3.72
2023-11-20T12:46:09.786Z,4.45
2023-11-20T12:51:12.617Z,4.43
2023-11-20T12:56:15.382Z,4.13
2023-11-20T13:01:17.147Z,5.15
2023-11-20T13:06:18.701Z,3.83
2023-11-20T13:11:20.247Z,3.78
2023-11-20T13:16:22.933Z,3.65
2023-11-20T13:21:26.225Z,3.63
2023-11-20T13:26:28.697Z,4.65
2023-11-20T13:31:37.029Z,4.45
2023-11-20T13:36:39.426Z,4.88
2023-11-20T13:41:42.237Z,3.97
2023-11-20T13:46:44.190Z,3.83
2023-11-20T13:51:45.784Z,3.53
2023-11-20T13:56:47.285Z,4.80
2023-11-20T14:01:52.682Z,3.45
2023-11-20T14:06:54.888Z,4.28
2023-11-20T14:11:58.017Z,4.40
2023-11-20T14:16:59.667Z,4.25
2023-11-20T14:22:01.593Z,3.95
2023-11-20T14:27:03.231Z,4.13
2023-11-20T14:32:05.264Z,4.15
2023-11-20T14:37:06.859Z,4.07
2023-11-20T14:42:09.369Z,3.33
2023-11-20T14:47:10.945Z,4.00
2023-11-20T14:52:13.333Z,3.88
2023-11-20T14:57:16.884Z,3.95
2023-11-20T15:02:18.397Z,3.35
2023-11-20T15:07:19.991Z,12.38
2023-11-20T15:12:24.529Z,5.32
2023-11-20T15:17:26.176Z,4.15
2023-11-20T15:22:27.739Z,4.30
2023-11-20T15:27:29.471Z,3.85
2023-11-20T15:32:31.010Z,4.35
2023-11-20T15:37:33.231Z,5.05
2023-11-20T15:42:35.647Z,3.53
2023-11-20T15:47:37.347Z,3.45
2023-11-20T15:52:38.997Z,2.58
2023-11-20T15:57:40.691Z,2.63
2023-11-20T16:02:42.484Z,3.08
2023-11-20T16:07:45.212Z,2.65
2023-11-20T16:12:47.376Z,3.58
2023-11-20T16:17:50.192Z,2.60
2023-11-20T16:22:53.456Z,6.80
2023-11-20T16:27:55.009Z,2.72
2023-11-20T16:32:56.677Z,2.90
2023-11-20T16:38:02.140Z,3.35
2023-11-20T16:43:04.327Z,7.55
2023-11-20T16:48:06.785Z,6.55
2023-11-20T16:53:08.423Z,8.05
2023-11-20T16:58:10.163Z,5.20
2023-11-20T17:03:12.555Z,4.55
2023-11-20T17:08:14.221Z,4.82
2023-11-20T17:13:15.928Z,4.93
2023-11-20T17:18:17.633Z,7.00
2023-11-20T17:23:19.214Z,7.32
2023-11-20T17:28:20.817Z,6.85
2023-11-20T17:33:22.505Z,7.13
2023-11-20T17:38:25.629Z,9.52
2023-11-20T17:43:27.405Z,7.45
2023-11-20T17:48:30.418Z,8.55
2023-11-20T17:53:32.390Z,8.57
2023-11-20T17:58:34.123Z,9.88
2023-11-20T18:03:35.884Z,21.33
2023-11-20T18:08:42.163Z,16.80
2023-11-20T18:13:43.679Z,14.68
2023-11-20T18:18:45.481Z,17.33
2023-11-20T18:23:47.126Z,18.67
2023-11-20T18:28:48.635Z,18.02
2023-11-20T18:33:50.178Z,19.13
2023-11-20T18:38:52.409Z,27.17
2023-11-20T18:43:54.011Z,31.30
2023-11-20T18:48:55.619Z,21.85
2023-11-20T18:53:57.803Z,20.75
2023-11-20T18:58:59.299Z,28.70
2023-11-20T19:04:02.859Z,25.80
2023-11-20T19:09:06.356Z,22.73
2023-11-20T19:14:07.951Z,21.52
2023-11-20T19:19:11.539Z,24.23
2023-11-20T19:24:13.666Z,28.17
2023-11-20T19:29:16.576Z,21.05
2023-11-20T19:34:18.836Z,26.02
2023-11-20T19:39:20.535Z,24.30
2023-11-20T19:44:23.000Z,21.15
2023-11-20T19:49:24.596Z,23.98
2023-11-20T19:54:26.151Z,25.33
2023-11-20T19:59:27.729Z,23.23
2023-11-20T20:04:29.418Z,27.73
2023-11-20T20:09:30.984Z,27.65
2023-11-20T20:14:34.338Z,27.30
2023-11-20T20:19:42.011Z,27.50
2023-11-20T20:29:46.557Z,27.35
2023-11-20T20:34:48.172Z,25.70
2023-11-20T20:39:49.720Z,28.17
2023-11-20T20:44:52.042Z,31.38
2023-11-20T20:49:53.959Z,29.05
2023-11-20T20:54:59.502Z,25.67
2023-11-20T21:00:04.403Z,23.20
2023-11-20T21:05:09.157Z,24.58
2023-11-20T21:10:11.894Z,23.13
2023-11-20T21:15:13.555Z,21.88
2023-11-20T21:20:15.848Z,21.67
2023-11-20T21:25:18.101Z,19.83
2023-11-20T21:30:20.763Z,20.10
2023-11-20T21:35:22.991Z,18.33
2023-11-20T21:40:25.603Z,18.38
2023-11-20T21:45:28.169Z,17.13
2023-11-20T21:50:29.967Z,18.27
2023-11-20T21:55:31.501Z,17.10
2023-11-20T22:00:33.055Z,17.10
2023-11-20T22:05:34.625Z,17.05
2023-11-20T22:10:37.513Z,19.25
2023-11-20T22:15:40.871Z,17.80
2023-11-20T22:20:42.469Z,17.33
2023-11-20T22:25:44.180Z,17.08
2023-11-20T22:30:45.715Z,17.23
2023-11-20T22:35:47.628Z,15.02
2023-11-20T22:40:49.167Z,15.18
2023-11-20T22:45:51.745Z,14.73
2023-11-20T22:50:53.432Z,14.20
2023-11-20T22:55:55.001Z,14.23
2023-11-20T23:00:57.242Z,14.98
2023-11-20T23:06:00.836Z,14.15
2023-11-20T23:11:02.413Z,14.00
2023-11-20T23:16:04.082Z,14.57
2023-11-20T23:21:09.966Z,13.68
2023-11-20T23:26:11.803Z,13.70
2023-11-20T23:31:13.427Z,13.57
2023-11-20T23:36:15.015Z,13.38
2023-11-20T23:41:16.549Z,12.13
2023-11-20T23:46:18.482Z,12.25
2023-11-20T23:51:20.691Z,12.13
2023-11-20T23:56:22.288Z,11.25
